Terminal Aerodrome Forecast
Issued by NWS

Home | Current Version | Previous Version | Text Only | Print | Product List | Glossary On
Versions: 1 2 3 4 5 6 7 8 9 10 11 12 13 14 15 16 17 18 19 20 21
000
FTUS43 KIND 231740
TAFBMG
TAF
KBMG 231740Z 2318/2418 25008KT P6SM VCTS SCT015CB BKN025
     FM232200 30008KT P6SM FEW025 SCT200
     FM240000 31004KT P6SM SCT200
      TEMPO 2409/2412 4SM BR
     FM241200 31004KT P6SM SCT025=

USA.gov is the U.S. government's official web portal to all federal, state and local government web resources and services.